createdAt,value
2022-12-23T00:00:58.563Z,25.20
2022-12-23T00:03:25.163Z,25.20
2022-12-23T00:05:51.628Z,25.20
2022-12-23T00:08:18.184Z,25.20
2022-12-23T00:10:44.384Z,25.20
2022-12-23T00:13:30.237Z,25.10
2022-12-23T00:16:06.711Z,25.20
2022-12-23T00:18:33.743Z,25.20
2022-12-23T00:21:08.126Z,25.20
2022-12-23T00:23:37.568Z,25.20
2022-12-23T00:26:04.599Z,25.20
2022-12-23T00:28:31.208Z,25.20
2022-12-23T00:31:03.416Z,25.20
2022-12-23T00:33:32.761Z,25.20
2022-12-23T00:35:59.748Z,25.20
2022-12-23T00:38:45.537Z,25.20
2022-12-23T00:41:36.201Z,25.20
2022-12-23T00:44:03.572Z,25.20
2022-12-23T00:46:29.851Z,25.20
2022-12-23T00:49:14.678Z,25.20
2022-12-23T00:51:40.749Z,25.20
2022-12-23T00:54:07.268Z,25.20
2022-12-23T00:56:33.743Z,25.20
2022-12-23T00:59:00.111Z,25.20
2022-12-23T01:01:45.075Z,25.20
2022-12-23T01:04:32.075Z,25.20
2022-12-23T01:06:58.272Z,25.20
2022-12-23T01:09:24.736Z,25.20
2022-12-23T01:11:51.027Z,25.20
2022-12-23T01:14:17.297Z,25.20
2022-12-23T01:16:43.631Z,25.20
2022-12-23T01:19:10.094Z,25.20
2022-12-23T01:21:36.299Z,25.20
2022-12-23T01:24:02.905Z,25.20
2022-12-23T01:26:29.025Z,25.20
2022-12-23T01:28:56.634Z,25.20
2022-12-23T01:31:24.509Z,25.20
2022-12-23T01:33:51.726Z,25.20
2022-12-23T01:36:17.994Z,25.20
2022-12-23T01:38:44.242Z,25.20
2022-12-23T01:41:36.713Z,25.20
2022-12-23T01:44:03.162Z,25.20
2022-12-23T01:46:29.360Z,25.20
2022-12-23T01:48:56.652Z,25.20
2022-12-23T01:51:28.360Z,25.20
2022-12-23T01:54:00.585Z,25.20
2022-12-23T01:56:39.581Z,25.20
2022-12-23T01:59:11.336Z,25.20
2022-12-23T02:01:56.362Z,25.20
2022-12-23T02:04:25.232Z,25.20
2022-12-23T02:07:10.407Z,25.20
2022-12-23T02:09:38.907Z,25.20
2022-12-23T02:12:35.716Z,25.20
2022-12-23T02:15:20.508Z,25.20
2022-12-23T02:17:57.634Z,25.20
2022-12-23T02:20:57.628Z,25.20
2022-12-23T02:23:59.909Z,25.20
2022-12-23T02:26:57.009Z,25.20
2022-12-23T02:29:51.689Z,25.20
2022-12-23T02:32:48.340Z,25.20
2022-12-23T02:35:20.296Z,25.20
2022-12-23T02:38:06.382Z,25.20
2022-12-23T02:40:41.319Z,25.20
2022-12-23T02:43:23.555Z,25.20
2022-12-23T02:45:54.875Z,25.20
2022-12-23T02:48:36.614Z,25.20
2022-12-23T02:51:05.041Z,25.20
2022-12-23T02:53:35.032Z,25.20
2022-12-23T02:56:02.911Z,25.20
2022-12-23T02:58:36.037Z,25.20
2022-12-23T03:01:06.111Z,25.20
2022-12-23T03:03:32.618Z,25.20
2022-12-23T03:05:58.785Z,25.20
2022-12-23T03:08:29.675Z,25.20
2022-12-23T03:11:09.675Z,25.20
2022-12-23T03:14:05.232Z,25.20
2022-12-23T03:16:58.936Z,25.20
2022-12-23T03:19:40.006Z,25.20
2022-12-23T03:22:43.038Z,25.20
2022-12-23T03:25:16.824Z,25.20
2022-12-23T03:27:47.278Z,25.20
2022-12-23T03:30:22.231Z,25.20
2022-12-23T03:33:06.037Z,25.20
2022-12-23T03:35:40.118Z,25.20
2022-12-23T03:38:08.303Z,25.20
2022-12-23T03:40:52.054Z,25.20
2022-12-23T03:43:25.354Z,25.30
2022-12-23T03:45:58.507Z,25.20
2022-12-23T03:48:34.008Z,25.20
2022-12-23T03:51:06.800Z,25.20
2022-12-23T03:53:44.957Z,25.30
2022-12-23T03:56:19.663Z,25.20
2022-12-23T03:58:56.885Z,25.30
2022-12-23T04:01:45.347Z,25.20
2022-12-23T04:04:48.834Z,25.30
2022-12-23T04:07:30.258Z,25.20
2022-12-23T04:09:58.138Z,25.20
2022-12-23T04:12:27.023Z,25.20
2022-12-23T04:14:53.424Z,25.20
2022-12-23T04:17:19.777Z,25.30
2022-12-23T04:19:46.581Z,25.20
2022-12-23T04:22:14.263Z,25.20
2022-12-23T04:24:40.841Z,25.30
2022-12-23T04:27:09.092Z,25.20
2022-12-23T04:29:35.178Z,25.30
2022-12-23T04:32:01.275Z,25.30
2022-12-23T04:34:27.429Z,25.30
2022-12-23T04:36:53.657Z,25.30
2022-12-23T04:39:19.811Z,25.30
2022-12-23T04:41:45.870Z,25.30
2022-12-23T04:44:12.101Z,25.30
2022-12-23T04:46:39.772Z,25.30
2022-12-23T04:49:06.391Z,25.20
2022-12-23T04:51:32.537Z,25.30
2022-12-23T04:53:58.580Z,25.30
2022-12-23T04:56:24.656Z,25.30
2022-12-23T04:58:55.805Z,25.30
2022-12-23T05:01:21.944Z,25.30
2022-12-23T05:03:48.186Z,25.30
2022-12-23T05:06:14.293Z,25.30
2022-12-23T05:08:40.364Z,25.30
2022-12-23T05:11:06.863Z,25.30
2022-12-23T05:13:33.016Z,25.20
2022-12-23T05:15:59.184Z,25.20
2022-12-23T05:18:25.325Z,25.30
2022-12-23T05:20:51.436Z,25.30
2022-12-23T05:23:17.549Z,25.30
2022-12-23T05:25:49.166Z,25.30
2022-12-23T05:28:15.266Z,25.30
2022-12-23T05:30:41.332Z,25.30
2022-12-23T05:33:07.450Z,25.30
2022-12-23T05:35:33.523Z,25.20
2022-12-23T05:38:01.848Z,25.20
2022-12-23T05:40:31.089Z,25.30
2022-12-23T05:42:58.768Z,25.30
2022-12-23T05:45:24.890Z,25.30
2022-12-23T05:47:50.996Z,25.30
2022-12-23T05:50:18.128Z,25.20
2022-12-23T05:52:44.183Z,25.20
2022-12-23T05:55:11.000Z,25.30
2022-12-23T05:57:37.055Z,25.30
2022-12-23T06:00:04.140Z,25.20
2022-12-23T06:02:30.349Z,25.20
2022-12-23T06:04:56.780Z,25.20
2022-12-23T06:07:22.868Z,25.20
2022-12-23T06:09:48.932Z,25.20
2022-12-23T06:12:14.987Z,25.10
2022-12-23T06:14:41.051Z,25.10
2022-12-23T06:17:07.278Z,25.10
2022-12-23T06:19:33.350Z,25.00
2022-12-23T06:21:59.458Z,25.00
2022-12-23T06:24:26.076Z,25.00
2022-12-23T06:26:56.959Z,25.00
2022-12-23T06:29:24.275Z,24.90
2022-12-23T06:31:50.379Z,24.90
2022-12-23T06:34:16.687Z,24.90
2022-12-23T06:36:42.734Z,24.90
2022-12-23T06:39:09.836Z,24.90
2022-12-23T06:41:35.994Z,24.90
2022-12-23T06:44:02.562Z,24.80
2022-12-23T06:46:28.758Z,24.80
2022-12-23T06:48:54.910Z,24.80
2022-12-23T06:51:21.039Z,24.80
2022-12-23T06:53:47.200Z,24.70
2022-12-23T06:56:13.403Z,24.70
2022-12-23T06:58:39.498Z,24.70
2022-12-23T07:01:05.933Z,24.80
2022-12-23T07:03:32.190Z,24.70
2022-12-23T07:05:58.334Z,24.70
2022-12-23T07:08:24.450Z,24.70
2022-12-23T07:10:50.503Z,24.70
2022-12-23T07:13:16.564Z,24.70
2022-12-23T07:15:42.745Z,24.70
2022-12-23T07:18:08.847Z,24.70
2022-12-23T07:20:34.952Z,24.70
2022-12-23T07:23:01.107Z,24.70
2022-12-23T07:25:27.323Z,24.70
2022-12-23T07:27:54.649Z,24.70
2022-12-23T07:30:21.759Z,24.70
2022-12-23T07:32:49.285Z,24.70
2022-12-23T07:35:16.826Z,24.70
2022-12-23T07:37:42.995Z,24.70
2022-12-23T07:40:10.031Z,24.70
2022-12-23T07:42:46.141Z,24.70
2022-12-23T07:45:13.105Z,24.70
2022-12-23T07:47:39.173Z,24.70
2022-12-23T07:50:05.962Z,24.70
2022-12-23T07:52:32.018Z,24.70
2022-12-23T07:54:58.074Z,24.70
2022-12-23T07:57:24.215Z,24.70
2022-12-23T07:59:50.262Z,24.70
2022-12-23T08:02:16.553Z,24.70
2022-12-23T08:04:46.326Z,24.80
2022-12-23T08:07:12.822Z,24.70
2022-12-23T08:09:38.911Z,24.70
2022-12-23T08:12:05.309Z,24.70
2022-12-23T08:14:31.379Z,24.70
2022-12-23T08:16:57.563Z,24.70
2022-12-23T08:19:23.706Z,24.70
2022-12-23T08:21:49.806Z,24.70
2022-12-23T08:24:15.860Z,24.70
2022-12-23T08:26:42.001Z,24.70
2022-12-23T08:29:08.150Z,24.80
2022-12-23T08:31:34.282Z,24.70
2022-12-23T08:34:00.742Z,24.80
2022-12-23T08:36:32.735Z,24.80
2022-12-23T08:39:01.732Z,24.80
2022-12-23T08:41:30.996Z,24.80
2022-12-23T08:43:57.809Z,24.70
2022-12-23T08:46:25.376Z,24.80
2022-12-23T08:48:52.449Z,24.80
2022-12-23T08:51:20.431Z,24.80
2022-12-23T08:53:47.335Z,24.80
2022-12-23T08:56:18.364Z,24.80
2022-12-23T08:58:46.470Z,24.80
2022-12-23T09:01:16.069Z,24.80
2022-12-23T09:03:42.959Z,24.80
2022-12-23T09:06:12.607Z,24.80
2022-12-23T09:08:39.879Z,24.80
2022-12-23T09:11:10.243Z,24.80
2022-12-23T09:13:36.422Z,24.80
2022-12-23T09:16:03.334Z,24.80
2022-12-23T09:18:29.596Z,24.80
2022-12-23T09:21:05.245Z,24.80
2022-12-23T09:23:31.964Z,24.80
2022-12-23T09:25:58.070Z,24.80
2022-12-23T09:28:24.738Z,24.80
2022-12-23T09:30:51.209Z,24.80
2022-12-23T09:33:17.964Z,24.80
2022-12-23T09:35:44.239Z,24.80
2022-12-23T09:38:10.305Z,24.80
2022-12-23T09:40:40.049Z,24.80
2022-12-23T09:43:21.617Z,24.80
2022-12-23T09:45:53.166Z,24.80
2022-12-23T09:48:24.974Z,24.80
2022-12-23T09:50:51.254Z,24.90
2022-12-23T09:53:32.538Z,24.80
2022-12-23T09:56:30.544Z,24.90
2022-12-23T09:59:18.171Z,24.90
2022-12-23T10:01:56.622Z,24.80
2022-12-23T10:04:34.331Z,24.80
2022-12-23T10:07:12.276Z,24.80
2022-12-23T10:09:48.504Z,24.80
2022-12-23T10:12:40.308Z,24.80
2022-12-23T10:15:19.461Z,24.80
2022-12-23T10:17:47.975Z,24.90
2022-12-23T10:20:25.891Z,24.90
2022-12-23T10:22:54.665Z,24.80
2022-12-23T10:25:34.297Z,24.80
2022-12-23T10:28:00.402Z,24.80
2022-12-23T10:31:00.675Z,24.80
2022-12-23T10:33:21.811Z,24.90
2022-12-23T10:35:47.813Z,24.90
2022-12-23T10:38:26.108Z,24.90
2022-12-23T10:41:15.910Z,24.90
2022-12-23T10:44:10.336Z,24.90
2022-12-23T10:46:39.325Z,24.90
2022-12-23T10:49:30.416Z,24.90
2022-12-23T10:51:59.727Z,24.90
2022-12-23T10:54:33.333Z,24.80
2022-12-23T10:57:00.235Z,24.90
2022-12-23T10:59:30.022Z,24.90
2022-12-23T11:02:13.424Z,24.90
2022-12-23T11:04:42.004Z,24.90
2022-12-23T11:07:42.910Z,24.90
2022-12-23T11:10:04.739Z,24.90
2022-12-23T11:12:42.651Z,24.90
2022-12-23T11:15:23.969Z,24.90
2022-12-23T11:18:02.342Z,24.90
2022-12-23T11:20:29.135Z,24.90
2022-12-23T11:23:01.539Z,24.90
2022-12-23T11:25:35.180Z,24.90
2022-12-23T11:28:10.325Z,24.90
2022-12-23T11:31:09.011Z,24.90
2022-12-23T11:33:39.227Z,24.90
2022-12-23T11:36:23.344Z,24.90
2022-12-23T11:39:01.148Z,24.80
2022-12-23T11:41:29.823Z,24.90
2022-12-23T11:44:04.508Z,24.90
2022-12-23T11:46:33.766Z,24.80
2022-12-23T11:49:14.332Z,24.80
2022-12-23T11:51:41.148Z,24.80
2022-12-23T11:54:16.347Z,24.90
2022-12-23T11:56:43.559Z,24.90
2022-12-23T11:59:31.015Z,24.80
2022-12-23T12:02:00.527Z,24.80
2022-12-23T12:04:32.597Z,24.80
2022-12-23T12:07:00.045Z,24.80
2022-12-23T12:09:28.618Z,24.80
2022-12-23T12:12:07.554Z,24.80
2022-12-23T12:14:42.422Z,24.80
2022-12-23T12:17:21.592Z,24.80
2022-12-23T12:20:05.743Z,24.80
2022-12-23T12:22:39.339Z,24.80
2022-12-23T12:25:17.204Z,24.80
2022-12-23T12:27:49.260Z,24.80
2022-12-23T12:30:19.273Z,24.80
2022-12-23T12:32:58.721Z,24.80
2022-12-23T12:35:43.555Z,24.80
2022-12-23T12:38:26.019Z,24.80
2022-12-23T12:40:58.165Z,24.80
2022-12-23T12:43:30.820Z,24.70
2022-12-23T12:46:05.874Z,24.80
2022-12-23T12:48:53.440Z,24.80
2022-12-23T12:51:42.244Z,24.80
2022-12-23T12:54:26.255Z,24.70
2022-12-23T12:56:57.756Z,24.70
2022-12-23T12:59:38.247Z,24.70
2022-12-23T13:02:46.657Z,24.70
2022-12-23T13:05:37.425Z,24.70
2022-12-23T13:08:27.736Z,24.70
2022-12-23T13:11:01.628Z,24.70
2022-12-23T13:13:42.968Z,24.70
2022-12-23T13:16:37.764Z,24.70
2022-12-23T13:19:23.525Z,24.70
2022-12-23T13:21:59.750Z,24.70
2022-12-23T13:24:47.497Z,24.70
2022-12-23T13:27:19.497Z,24.70
2022-12-23T13:30:12.534Z,24.70
2022-12-23T13:33:06.149Z,24.70
2022-12-23T13:36:05.061Z,24.60
2022-12-23T13:39:03.985Z,24.60
2022-12-23T13:41:33.954Z,24.70
2022-12-23T13:44:04.572Z,24.60
2022-12-23T13:46:56.666Z,24.70
2022-12-23T13:50:06.038Z,24.70
2022-12-23T13:52:53.573Z,24.70
2022-12-23T13:55:37.511Z,24.70
2022-12-23T13:58:18.718Z,24.60
2022-12-23T14:00:45.057Z,24.60
2022-12-23T14:03:13.882Z,24.60
2022-12-23T14:05:58.073Z,24.60
2022-12-23T14:08:30.179Z,24.60
2022-12-23T14:11:11.958Z,24.60
2022-12-23T14:13:48.892Z,24.60
2022-12-23T14:16:32.533Z,24.60
2022-12-23T14:19:35.998Z,24.60
2022-12-23T14:22:37.931Z,24.60
2022-12-23T14:25:26.283Z,24.60
2022-12-23T14:28:01.316Z,24.60
2022-12-23T14:30:39.692Z,24.60
2022-12-23T14:33:23.501Z,24.60
2022-12-23T14:35:52.973Z,24.60
2022-12-23T14:38:28.297Z,24.60
2022-12-23T14:40:58.968Z,24.60
2022-12-23T14:43:50.421Z,24.60
2022-12-23T14:46:33.777Z,24.60
2022-12-23T14:49:29.781Z,24.60
2022-12-23T14:51:50.033Z,24.60
2022-12-23T14:54:17.804Z,24.60
2022-12-23T14:57:05.829Z,24.60
2022-12-23T14:59:56.184Z,24.60
2022-12-23T15:02:33.082Z,24.60
2022-12-23T15:04:59.876Z,24.60
2022-12-23T15:07:32.085Z,24.60
2022-12-23T15:10:04.932Z,24.60
2022-12-23T15:12:37.391Z,24.60
2022-12-23T15:15:17.013Z,24.60
2022-12-23T15:17:43.221Z,24.60
2022-12-23T15:20:21.536Z,24.60
2022-12-23T15:22:48.376Z,24.50
2022-12-23T15:25:30.836Z,24.50
2022-12-23T15:28:01.906Z,24.50
2022-12-23T15:30:34.216Z,24.50
2022-12-23T15:33:03.719Z,24.60
2022-12-23T15:35:32.731Z,24.50
2022-12-23T15:38:01.189Z,24.60
2022-12-23T15:40:33.334Z,24.50
2022-12-23T15:43:00.611Z,24.50
2022-12-23T15:45:34.226Z,24.60
2022-12-23T15:48:02.204Z,24.50
2022-12-23T15:50:29.656Z,24.50
2022-12-23T15:53:06.175Z,24.50
2022-12-23T15:55:34.780Z,24.50
2022-12-23T15:58:02.216Z,24.50
2022-12-23T16:00:40.075Z,24.50
2022-12-23T16:03:20.986Z,24.50
2022-12-23T16:05:47.199Z,24.50
2022-12-23T16:08:19.357Z,24.50
2022-12-23T16:10:59.719Z,24.50
2022-12-23T16:13:26.549Z,24.50
2022-12-23T16:15:52.784Z,24.50
2022-12-23T16:18:20.602Z,24.50
2022-12-23T16:20:52.707Z,24.40
2022-12-23T16:23:20.224Z,24.50
2022-12-23T16:25:50.449Z,24.40
2022-12-23T16:28:26.068Z,24.40
2022-12-23T16:30:56.189Z,24.50
2022-12-23T16:33:36.459Z,24.50
2022-12-23T16:36:25.862Z,24.50
2022-12-23T16:39:18.625Z,24.40
2022-12-23T16:41:44.703Z,24.40
2022-12-23T16:44:10.960Z,24.40
2022-12-23T16:46:41.517Z,24.40
2022-12-23T16:49:12.194Z,24.40
2022-12-23T16:51:39.737Z,24.40
2022-12-23T16:54:06.184Z,24.40
2022-12-23T16:56:36.725Z,24.40
2022-12-23T16:59:03.491Z,24.40
2022-12-23T17:01:35.725Z,24.40
2022-12-23T17:04:01.976Z,24.40
2022-12-23T17:06:28.222Z,24.40
2022-12-23T17:08:55.985Z,24.40
2022-12-23T17:11:35.008Z,24.40
2022-12-23T17:14:04.879Z,24.40
2022-12-23T17:16:33.015Z,24.40
2022-12-23T17:18:59.541Z,24.40
2022-12-23T17:21:29.970Z,24.40
2022-12-23T17:24:05.904Z,24.40
2022-12-23T17:26:32.181Z,24.40
2022-12-23T17:28:58.271Z,24.40
2022-12-23T17:31:27.140Z,24.40
2022-12-23T17:33:53.917Z,24.40
2022-12-23T17:36:22.484Z,24.40
2022-12-23T17:38:48.636Z,24.40
2022-12-23T17:41:30.466Z,24.40
2022-12-23T17:43:57.432Z,24.40
2022-12-23T17:46:24.540Z,24.40
2022-12-23T17:48:51.000Z,24.40
2022-12-23T17:51:19.655Z,24.40
2022-12-23T17:53:53.202Z,24.40
2022-12-23T17:56:24.263Z,24.40
2022-12-23T17:58:51.166Z,24.40
2022-12-23T18:01:26.116Z,24.40
2022-12-23T18:03:52.670Z,24.40
2022-12-23T18:06:20.972Z,24.40
2022-12-23T18:08:47.457Z,24.40
2022-12-23T18:11:34.000Z,24.50
2022-12-23T18:14:01.691Z,24.50
2022-12-23T18:16:28.107Z,24.50
2022-12-23T18:18:54.251Z,24.50
2022-12-23T18:21:23.979Z,24.50
2022-12-23T18:23:52.909Z,24.60
2022-12-23T18:26:19.405Z,24.60
2022-12-23T18:28:45.647Z,24.60
2022-12-23T18:31:16.270Z,24.60
2022-12-23T18:33:42.687Z,24.60
2022-12-23T18:36:31.850Z,24.70
2022-12-23T18:38:58.123Z,24.70
2022-12-23T18:41:25.603Z,24.70
2022-12-23T18:43:52.677Z,24.70
2022-12-23T18:46:22.336Z,24.70
2022-12-23T18:48:48.903Z,24.70
2022-12-23T18:51:17.007Z,24.70
2022-12-23T18:53:43.314Z,24.70
2022-12-23T18:56:13.683Z,24.80
2022-12-23T18:58:39.744Z,24.70
2022-12-23T19:01:09.687Z,24.80
2022-12-23T19:03:35.830Z,24.80
2022-12-23T19:06:06.563Z,24.80
2022-12-23T19:08:34.936Z,24.80
2022-12-23T19:11:01.858Z,24.90
2022-12-23T19:13:28.248Z,24.90
2022-12-23T19:15:54.393Z,24.90
2022-12-23T19:18:21.463Z,24.90
2022-12-23T19:20:48.552Z,24.90
2022-12-23T19:23:15.750Z,24.90
2022-12-23T19:25:46.062Z,24.90
2022-12-23T19:28:18.453Z,24.90
2022-12-23T19:30:44.544Z,24.90
2022-12-23T19:33:12.591Z,24.90
2022-12-23T19:35:42.917Z,24.90
2022-12-23T19:38:09.336Z,24.90
2022-12-23T19:40:35.531Z,24.90
2022-12-23T19:43:02.726Z,24.90
2022-12-23T19:45:28.791Z,24.90
2022-12-23T19:47:54.888Z,24.90
2022-12-23T19:50:21.588Z,25.00
2022-12-23T19:52:49.437Z,24.90
2022-12-23T19:55:15.920Z,24.90
2022-12-23T19:57:42.588Z,24.90
2022-12-23T20:00:09.508Z,25.00
2022-12-23T20:02:36.092Z,24.90
2022-12-23T20:05:02.255Z,25.00
2022-12-23T20:07:28.323Z,25.00
2022-12-23T20:09:54.441Z,25.00
2022-12-23T20:12:20.822Z,25.00
2022-12-23T20:14:47.150Z,25.00
2022-12-23T20:17:13.261Z,25.00
2022-12-23T20:19:45.849Z,25.00
2022-12-23T20:22:12.626Z,25.00
2022-12-23T20:24:38.729Z,25.00
2022-12-23T20:27:09.490Z,25.00
2022-12-23T20:29:37.668Z,25.10
2022-12-23T20:32:03.979Z,25.00
2022-12-23T20:34:36.523Z,25.00
2022-12-23T20:37:05.403Z,25.00
2022-12-23T20:39:31.482Z,25.00
2022-12-23T20:41:57.629Z,25.00
2022-12-23T20:44:34.607Z,25.00
2022-12-23T20:47:02.447Z,25.00
2022-12-23T20:49:28.573Z,25.00
2022-12-23T20:51:54.695Z,25.00
2022-12-23T20:54:24.947Z,25.00
2022-12-23T20:56:54.154Z,25.00
2022-12-23T20:59:20.302Z,25.00
2022-12-23T21:01:46.451Z,25.10
2022-12-23T21:04:17.640Z,25.00
2022-12-23T21:06:44.247Z,25.00
2022-12-23T21:09:12.091Z,25.10
2022-12-23T21:11:42.468Z,25.10
2022-12-23T21:14:09.237Z,25.10
2022-12-23T21:16:37.392Z,25.10
2022-12-23T21:19:05.506Z,25.10
2022-12-23T21:21:31.924Z,25.10
2022-12-23T21:24:01.124Z,25.10
2022-12-23T21:26:29.150Z,25.10
2022-12-23T21:29:00.772Z,25.10
2022-12-23T21:31:28.651Z,25.10
2022-12-23T21:33:55.170Z,25.10
2022-12-23T21:36:23.954Z,25.10
2022-12-23T21:38:50.696Z,25.10
2022-12-23T21:41:22.096Z,25.10
2022-12-23T21:43:49.144Z,25.10
2022-12-23T21:46:17.514Z,25.10
2022-12-23T21:48:44.066Z,25.10
2022-12-23T21:51:12.972Z,25.10
2022-12-23T21:53:40.060Z,25.10
2022-12-23T21:56:09.543Z,25.10
2022-12-23T21:58:36.123Z,25.10
2022-12-23T22:01:07.730Z,25.10
2022-12-23T22:03:34.469Z,25.10
2022-12-23T22:06:10.380Z,25.10
2022-12-23T22:08:38.305Z,25.10
2022-12-23T22:11:16.511Z,25.10
2022-12-23T22:13:44.568Z,25.10
2022-12-23T22:16:13.307Z,25.10
2022-12-23T22:18:40.747Z,25.10
2022-12-23T22:21:09.166Z,25.10
2022-12-23T22:23:36.848Z,25.10
2022-12-23T22:26:03.532Z,25.10
2022-12-23T22:28:34.082Z,25.10
2022-12-23T22:31:04.074Z,25.10
2022-12-23T22:33:31.121Z,25.10
2022-12-23T22:35:57.247Z,25.10
2022-12-23T22:38:23.480Z,25.10
2022-12-23T22:40:51.185Z,25.10
2022-12-23T22:43:17.882Z,25.10
2022-12-23T22:45:44.427Z,25.10
2022-12-23T22:48:11.154Z,25.10
2022-12-23T22:50:37.489Z,25.10
2022-12-23T22:53:04.525Z,25.10
2022-12-23T22:55:30.666Z,25.10
2022-12-23T22:57:56.783Z,25.20
2022-12-23T23:00:23.033Z,25.10
2022-12-23T23:02:49.101Z,25.20
2022-12-23T23:05:15.204Z,25.20
2022-12-23T23:07:41.349Z,25.20
2022-12-23T23:10:08.170Z,25.20
2022-12-23T23:12:34.225Z,25.10
2022-12-23T23:15:00.326Z,25.20
2022-12-23T23:17:28.315Z,25.20
2022-12-23T23:19:54.744Z,25.20
2022-12-23T23:22:22.976Z,25.20
2022-12-23T23:24:49.125Z,25.20
2022-12-23T23:27:15.251Z,25.20
2022-12-23T23:29:41.438Z,25.20
2022-12-23T23:32:08.261Z,25.20
2022-12-23T23:34:34.813Z,25.20
2022-12-23T23:37:01.265Z,25.20
2022-12-23T23:39:27.336Z,25.20
2022-12-23T23:41:53.516Z,25.20
2022-12-23T23:44:20.115Z,25.20
2022-12-23T23:46:46.241Z,25.20
2022-12-23T23:49:12.983Z,25.20
2022-12-23T23:51:39.572Z,25.20
2022-12-23T23:54:05.867Z,25.20
2022-12-23T23:56:37.822Z,25.20
2022-12-23T23:59:04.549Z,25.20
